createdAt,value
2023-03-11T00:01:30.610Z,24.35
2023-03-11T00:04:02.913Z,23.50
2023-03-11T00:06:38.250Z,25.35
2023-03-11T00:09:12.391Z,25.75
2023-03-11T00:11:45.207Z,25.83
2023-03-11T00:14:16.100Z,19.48
2023-03-11T00:16:49.215Z,21.80
2023-03-11T00:19:22.465Z,23.25
2023-03-11T00:21:56.482Z,23.48
2023-03-11T00:24:33.783Z,18.30
2023-03-11T00:27:05.429Z,18.92
2023-03-11T00:30:33.242Z,20.80
2023-03-11T00:33:08.785Z,23.95
2023-03-11T00:35:54.966Z,18.00
2023-03-11T00:41:29.818Z,15.10
2023-03-11T00:44:06.310Z,15.57
2023-03-11T00:46:40.231Z,15.75
2023-03-11T00:49:20.868Z,16.42
2023-03-11T00:51:56.847Z,15.82
2023-03-11T00:54:34.413Z,14.75
2023-03-11T00:57:13.727Z,24.83
2023-03-11T00:59:48.889Z,21.00
2023-03-11T01:02:22.370Z,18.92
2023-03-11T01:04:58.960Z,19.85
2023-03-11T01:07:35.236Z,21.25
2023-03-11T01:10:18.729Z,22.92
2023-03-11T01:12:53.240Z,23.35
2023-03-11T01:15:27.415Z,16.48
2023-03-11T01:18:01.170Z,25.02
2023-03-11T01:20:34.333Z,25.60
2023-03-11T01:23:17.293Z,29.55
2023-03-11T01:25:51.002Z,24.45
2023-03-11T01:28:25.732Z,21.60
2023-03-11T01:30:59.201Z,20.48
2023-03-11T01:33:35.570Z,15.88
2023-03-11T01:36:30.326Z,19.38
2023-03-11T01:39:14.029Z,12.35
2023-03-11T01:41:49.217Z,12.23
2023-03-11T01:44:26.010Z,15.52
2023-03-11T01:47:38.630Z,7.95
2023-03-11T01:50:19.351Z,7.30
2023-03-11T01:52:54.931Z,7.07
2023-03-11T01:55:28.618Z,7.85
2023-03-11T01:57:59.632Z,6.20
2023-03-11T02:00:35.604Z,6.45
2023-03-11T02:03:15.821Z,6.88
2023-03-11T02:05:53.310Z,5.05
2023-03-11T02:08:28.616Z,3.40
2023-03-11T02:11:06.649Z,3.92
2023-03-11T02:13:43.820Z,3.38
2023-03-11T02:16:19.764Z,3.67
2023-03-11T02:18:53.644Z,2.15
2023-03-11T02:21:27.940Z,2.03
2023-03-11T02:24:09.812Z,2.40
2023-03-11T02:26:45.955Z,2.55
2023-03-11T02:29:19.446Z,2.55
2023-03-11T02:31:51.492Z,4.25
2023-03-11T02:34:28.105Z,1.35
2023-03-11T02:36:59.668Z,1.58
2023-03-11T02:39:34.945Z,1.92
2023-03-11T02:42:10.761Z,1.88
2023-03-11T02:44:46.252Z,2.45
2023-03-11T02:47:20.221Z,2.15
2023-03-11T02:49:51.949Z,2.47
2023-03-11T02:52:23.169Z,1.85
2023-03-11T02:55:02.319Z,2.83
2023-03-11T02:57:33.912Z,2.97
2023-03-11T03:00:11.810Z,5.68
2023-03-11T03:02:52.486Z,3.90
2023-03-11T03:05:29.920Z,3.47
2023-03-11T03:08:04.720Z,3.00
2023-03-11T03:10:39.639Z,3.22
2023-03-11T03:13:17.998Z,3.95
2023-03-11T03:15:55.988Z,3.50
2023-03-11T03:18:32.109Z,5.15
2023-03-11T03:21:09.576Z,5.38
2023-03-11T03:26:43.328Z,3.53
2023-03-11T03:29:51.187Z,3.85
2023-03-11T03:32:25.522Z,4.85
2023-03-11T03:35:00.118Z,4.90
2023-03-11T03:37:49.057Z,3.42
2023-03-11T03:40:26.756Z,3.15
2023-03-11T03:43:05.360Z,3.55
2023-03-11T03:45:40.710Z,4.85
2023-03-11T03:48:16.299Z,5.90
2023-03-11T03:50:50.823Z,6.38
2023-03-11T03:53:28.311Z,5.63
2023-03-11T03:56:03.659Z,8.23
2023-03-11T03:58:39.313Z,5.13
2023-03-11T04:01:18.454Z,7.53
2023-03-11T04:04:07.862Z,8.10
2023-03-11T04:06:39.318Z,7.30
2023-03-11T04:09:12.901Z,5.53
2023-03-11T04:11:50.011Z,6.10
2023-03-11T04:14:23.160Z,5.13
2023-03-11T04:17:01.022Z,5.10
2023-03-11T04:19:51.859Z,5.95
2023-03-11T04:22:28.454Z,6.55
2023-03-11T04:25:02.025Z,7.68
2023-03-11T04:27:39.067Z,5.93
2023-03-11T04:30:13.369Z,5.90
2023-03-11T04:32:49.252Z,6.65
2023-03-11T04:35:36.003Z,4.80
2023-03-11T04:38:17.069Z,5.45
2023-03-11T04:40:50.967Z,8.02
2023-03-11T04:43:26.641Z,4.28
2023-03-11T04:46:00.625Z,3.00
2023-03-11T04:48:38.431Z,6.32
2023-03-11T04:51:19.290Z,4.05
2023-03-11T04:53:57.488Z,4.47
2023-03-11T04:56:35.681Z,3.53
2023-03-11T04:59:14.000Z,3.47
2023-03-11T05:01:49.916Z,7.43
2023-03-11T05:04:29.558Z,6.25
2023-03-11T05:07:03.595Z,3.53
2023-03-11T05:09:40.322Z,5.07
2023-03-11T05:12:18.511Z,6.13
2023-03-11T05:14:57.746Z,4.70
2023-03-11T05:17:34.540Z,5.47
2023-03-11T05:20:21.891Z,4.72
2023-03-11T05:23:09.936Z,5.10
2023-03-11T05:25:42.140Z,4.65
2023-03-11T05:28:16.866Z,5.10
2023-03-11T05:30:58.131Z,6.28
2023-03-11T05:33:45.508Z,7.65
2023-03-11T05:36:34.100Z,5.50
2023-03-11T05:39:15.520Z,5.18
2023-03-11T05:41:51.276Z,5.75
2023-03-11T05:44:38.982Z,3.30
2023-03-11T05:47:16.386Z,7.07
2023-03-11T05:50:17.365Z,4.70
2023-03-11T05:52:59.961Z,5.35
2023-03-11T05:55:48.785Z,7.28
2023-03-11T06:01:25.941Z,7.03
2023-03-11T06:04:07.169Z,5.35
2023-03-11T06:06:58.801Z,2.97
2023-03-11T06:09:39.615Z,6.90
2023-03-11T06:12:17.484Z,6.20
2023-03-11T06:15:02.653Z,6.00
2023-03-11T06:17:50.006Z,10.13
2023-03-11T06:20:23.878Z,9.07
2023-03-11T06:23:20.928Z,5.68
2023-03-11T06:26:01.820Z,6.32
2023-03-11T06:28:40.596Z,7.82
2023-03-11T06:31:17.568Z,6.60
2023-03-11T06:33:53.291Z,9.73
2023-03-11T06:36:27.931Z,7.18
2023-03-11T06:39:00.790Z,5.20
2023-03-11T06:41:35.329Z,8.40
2023-03-11T06:44:24.653Z,6.75
2023-03-11T06:47:03.826Z,6.55
2023-03-11T06:49:43.532Z,9.95
2023-03-11T06:52:19.863Z,6.38
2023-03-11T06:54:54.724Z,6.88
2023-03-11T06:57:27.927Z,6.90
2023-03-11T07:00:16.996Z,9.55
2023-03-11T07:02:55.842Z,8.65
2023-03-11T07:05:34.444Z,10.02
2023-03-11T07:08:17.604Z,6.60
2023-03-11T07:11:04.339Z,8.90
2023-03-11T07:13:38.674Z,7.75
2023-03-11T07:19:24.515Z,7.28
2023-03-11T07:22:18.020Z,11.63
2023-03-11T07:24:58.547Z,8.35
2023-03-11T07:27:53.955Z,12.30
2023-03-11T07:30:27.823Z,8.65
2023-03-11T07:33:04.985Z,11.88
2023-03-11T07:36:50.037Z,7.43
2023-03-11T07:39:26.448Z,5.10
2023-03-11T07:42:01.913Z,5.65
2023-03-11T07:44:40.666Z,14.88
2023-03-11T07:47:19.681Z,7.30
2023-03-11T07:49:50.830Z,12.88
2023-03-11T07:52:20.254Z,10.88
2023-03-11T07:54:49.377Z,8.65
2023-03-11T07:57:18.704Z,10.30
2023-03-11T07:59:47.852Z,5.25
2023-03-11T08:02:17.032Z,7.82
2023-03-11T08:09:14.145Z,10.18
2023-03-11T08:11:43.581Z,6.20
2023-03-11T08:14:12.990Z,5.93
2023-03-11T08:16:42.368Z,6.45
2023-03-11T08:19:14.049Z,11.93
2023-03-11T08:21:43.278Z,10.27
2023-03-11T08:24:15.146Z,8.82
2023-03-11T08:26:44.802Z,15.38
2023-03-11T08:29:14.094Z,9.50
2023-03-11T08:31:43.253Z,4.93
2023-03-11T08:34:13.435Z,7.28
2023-03-11T08:36:42.945Z,6.65
2023-03-11T08:39:13.618Z,6.43
2023-03-11T08:41:42.780Z,7.03
2023-03-11T08:44:12.005Z,7.97
2023-03-11T08:46:41.590Z,6.32
2023-03-11T08:49:10.851Z,5.40
2023-03-11T08:51:40.055Z,8.23
2023-03-11T08:54:09.188Z,7.70
2023-03-11T08:56:39.666Z,6.53
2023-03-11T08:59:09.390Z,7.15
2023-03-11T09:01:38.589Z,9.18
2023-03-11T09:04:07.712Z,6.57
2023-03-11T09:06:38.883Z,5.25
2023-03-11T09:09:08.056Z,5.88
2023-03-11T09:11:38.796Z,4.13
2023-03-11T09:14:08.102Z,7.50
2023-03-11T09:16:37.396Z,5.38
2023-03-11T09:19:07.614Z,8.95
2023-03-11T09:21:37.304Z,8.68
2023-03-11T09:24:07.236Z,6.28
2023-03-11T09:26:36.737Z,8.20
2023-03-11T09:29:07.293Z,5.75
2023-03-11T09:31:36.471Z,6.43
2023-03-11T09:34:05.952Z,7.88
2023-03-11T09:36:35.077Z,8.23
2023-03-11T09:39:04.260Z,6.72
2023-03-11T09:41:55.316Z,7.65
2023-03-11T09:44:34.093Z,8.00
2023-03-11T09:47:34.566Z,5.53
2023-03-11T09:50:17.029Z,5.78
2023-03-11T09:52:52.490Z,6.97
2023-03-11T09:55:38.851Z,6.80
2023-03-11T09:58:15.967Z,8.77
2023-03-11T10:00:47.002Z,5.82
2023-03-11T10:03:27.850Z,8.20
2023-03-11T10:06:02.678Z,7.35
2023-03-11T10:08:39.607Z,8.38
2023-03-11T10:11:22.792Z,8.27
2023-03-11T10:14:03.104Z,5.40
2023-03-11T10:16:43.756Z,8.20
2023-03-11T10:19:23.930Z,7.03
2023-03-11T10:22:01.308Z,11.25
2023-03-11T10:24:47.084Z,6.70
2023-03-11T10:27:21.016Z,7.13
2023-03-11T10:29:56.507Z,7.18
2023-03-11T10:32:36.363Z,7.15
2023-03-11T10:35:16.587Z,7.45
2023-03-11T10:37:50.830Z,9.35
2023-03-11T10:40:27.606Z,10.02
2023-03-11T10:42:59.781Z,8.55
2023-03-11T10:45:33.540Z,8.35
2023-03-11T10:48:04.190Z,7.22
2023-03-11T10:50:36.935Z,7.95
2023-03-11T10:53:09.175Z,5.70
2023-03-11T10:55:47.853Z,7.60
2023-03-11T10:58:19.984Z,4.32
2023-03-11T11:01:00.522Z,7.97
2023-03-11T11:03:31.980Z,8.00
2023-03-11T11:06:05.291Z,8.63
2023-03-11T11:08:35.306Z,6.70
2023-03-11T11:11:05.682Z,11.68
2023-03-11T11:14:04.387Z,8.40
2023-03-11T11:16:36.336Z,8.60
2023-03-11T11:19:10.532Z,9.57
2023-03-11T11:21:43.282Z,8.18
2023-03-11T11:24:21.931Z,8.48
2023-03-11T11:27:08.194Z,8.20
2023-03-11T11:29:37.448Z,13.45
2023-03-11T11:32:25.793Z,8.43
2023-03-11T11:35:03.320Z,12.20
2023-03-11T11:37:35.521Z,8.93
2023-03-11T11:40:11.660Z,13.80
2023-03-11T11:42:43.955Z,11.90
2023-03-11T11:45:20.172Z,10.32
2023-03-11T11:47:53.634Z,17.23
2023-03-11T11:50:30.235Z,8.02
2023-03-11T11:53:08.649Z,9.20
2023-03-11T11:55:41.376Z,9.32
2023-03-11T11:58:12.347Z,9.70
2023-03-11T12:00:50.517Z,12.55
2023-03-11T12:03:49.237Z,8.88
2023-03-11T12:06:28.309Z,10.63
2023-03-11T12:09:05.815Z,9.98
2023-03-11T12:11:43.342Z,9.50
2023-03-11T12:14:19.027Z,8.30
2023-03-11T12:16:57.109Z,12.35
2023-03-11T12:19:43.063Z,9.68
2023-03-11T12:22:53.461Z,7.03
2023-03-11T12:25:35.882Z,13.85
2023-03-11T12:28:17.188Z,9.10
2023-03-11T12:30:50.616Z,13.82
2023-03-11T12:33:26.439Z,15.90
2023-03-11T12:35:58.168Z,9.85
2023-03-11T12:38:34.216Z,12.07
2023-03-11T12:41:06.989Z,11.38
2023-03-11T12:44:04.010Z,8.98
2023-03-11T12:47:18.814Z,11.18
2023-03-11T12:49:50.126Z,11.18
2023-03-11T12:52:26.588Z,6.90
2023-03-11T12:55:33.720Z,8.13
2023-03-11T12:58:32.145Z,9.90
2023-03-11T13:01:28.358Z,9.88
2023-03-11T13:04:16.723Z,7.95
2023-03-11T13:07:28.997Z,9.38
2023-03-11T13:10:17.271Z,9.35
2023-03-11T13:12:49.425Z,9.48
2023-03-11T13:15:37.657Z,11.57
2023-03-11T13:18:18.671Z,10.80
2023-03-11T13:20:56.263Z,10.75
2023-03-11T13:23:37.945Z,12.25
2023-03-11T13:26:31.834Z,8.43
2023-03-11T13:29:34.408Z,7.35
2023-03-11T13:32:35.158Z,8.55
2023-03-11T13:35:15.088Z,9.98
2023-03-11T13:38:04.946Z,7.95
2023-03-11T13:40:39.344Z,8.70
2023-03-11T13:43:16.099Z,7.93
2023-03-11T13:45:52.242Z,8.77
2023-03-11T13:48:30.079Z,10.90
2023-03-11T13:51:03.306Z,12.40
2023-03-11T13:53:37.408Z,6.28
2023-03-11T13:56:07.560Z,5.03
2023-03-11T13:58:36.736Z,11.00
2023-03-11T14:01:07.082Z,5.88
2023-03-11T14:03:43.625Z,6.20
2023-03-11T14:06:19.419Z,6.28
2023-03-11T14:08:56.280Z,9.13
2023-03-11T14:11:29.226Z,10.93
2023-03-11T14:13:58.551Z,4.78
2023-03-11T14:16:35.376Z,7.55
2023-03-11T14:19:08.921Z,7.65
2023-03-11T14:21:38.282Z,7.55
2023-03-11T14:24:27.094Z,8.25
2023-03-11T14:26:57.944Z,5.72
2023-03-11T14:29:34.297Z,8.50
2023-03-11T14:32:16.811Z,6.60
2023-03-11T14:34:48.105Z,6.85
2023-03-11T14:37:35.016Z,5.82
2023-03-11T14:40:04.568Z,9.82
2023-03-11T14:42:38.697Z,7.97
2023-03-11T14:45:13.326Z,4.55
2023-03-11T14:47:48.309Z,6.10
2023-03-11T14:50:20.769Z,5.95
2023-03-11T14:52:55.499Z,6.95
2023-03-11T14:55:28.331Z,5.25
2023-03-11T14:58:03.164Z,7.85
2023-03-11T15:00:36.402Z,5.03
2023-03-11T15:03:17.235Z,9.02
2023-03-11T15:05:51.236Z,6.57
2023-03-11T15:08:23.210Z,5.88
2023-03-11T15:11:19.737Z,3.85
2023-03-11T15:13:51.345Z,4.72
2023-03-11T15:16:31.747Z,2.75
2023-03-11T15:19:23.588Z,5.95
2023-03-11T15:21:56.605Z,4.95
2023-03-11T15:28:45.805Z,3.58
2023-03-11T15:31:31.342Z,5.35
2023-03-11T15:34:32.274Z,7.93
2023-03-11T15:37:20.590Z,7.10
2023-03-11T15:39:53.244Z,3.55
2023-03-11T15:42:25.640Z,3.05
2023-03-11T15:45:15.562Z,4.30
2023-03-11T15:47:45.341Z,3.22
2023-03-11T15:50:30.150Z,3.55
2023-03-11T15:53:05.164Z,4.68
2023-03-11T15:55:34.292Z,3.95
2023-03-11T15:58:08.032Z,3.85
2023-03-11T16:00:38.196Z,14.35
2023-03-11T16:03:07.418Z,5.13
2023-03-11T16:05:36.508Z,3.10
2023-03-11T16:08:07.265Z,4.03
2023-03-11T16:10:36.737Z,4.85
2023-03-11T16:13:07.507Z,7.38
2023-03-11T16:15:38.644Z,7.28
2023-03-11T16:18:09.351Z,14.38
2023-03-11T16:20:42.993Z,5.68
2023-03-11T16:23:18.177Z,6.10
2023-03-11T16:25:48.005Z,4.68
2023-03-11T16:28:18.774Z,3.70
2023-03-11T16:30:49.742Z,4.85
2023-03-11T16:33:19.232Z,8.75
2023-03-11T16:35:49.092Z,7.63
2023-03-11T16:38:20.652Z,6.18
2023-03-11T16:40:58.181Z,3.58
2023-03-11T16:43:27.968Z,4.93
2023-03-11T16:45:59.079Z,12.90
2023-03-11T16:48:28.284Z,6.85
2023-03-11T16:50:57.367Z,5.70
2023-03-11T16:53:30.518Z,3.78
2023-03-11T16:55:59.951Z,6.47
2023-03-11T16:58:29.325Z,10.93
2023-03-11T17:00:58.671Z,4.30
2023-03-11T17:03:34.351Z,6.72
2023-03-11T17:06:07.199Z,3.42
2023-03-11T17:08:37.805Z,4.55
2023-03-11T17:11:07.131Z,3.53
2023-03-11T17:13:36.336Z,4.35
2023-03-11T17:16:06.024Z,7.05
2023-03-11T17:18:35.485Z,5.43
2023-03-11T17:21:09.247Z,5.18
2023-03-11T17:23:40.163Z,5.70
2023-03-11T17:26:11.167Z,4.05
2023-03-11T17:28:41.252Z,6.40
2023-03-11T17:31:13.926Z,5.40
2023-03-11T17:33:43.570Z,16.58
2023-03-11T17:36:16.442Z,4.55
2023-03-11T17:38:48.596Z,4.65
2023-03-11T17:41:18.857Z,6.80
2023-03-11T17:43:51.690Z,6.53
2023-03-11T17:46:22.631Z,7.57
2023-03-11T17:48:53.278Z,4.93
2023-03-11T17:51:24.433Z,6.72
2023-03-11T17:53:56.185Z,5.63
2023-03-11T17:56:25.663Z,4.05
2023-03-11T17:58:55.164Z,9.20
2023-03-11T18:01:25.628Z,4.55
2023-03-11T18:03:55.064Z,5.32
2023-03-11T18:06:24.749Z,6.43
2023-03-11T18:08:55.426Z,5.68
2023-03-11T18:11:27.179Z,4.10
2023-03-11T18:13:56.706Z,4.43
2023-03-11T18:16:28.089Z,7.32
2023-03-11T18:18:58.914Z,11.32
2023-03-11T18:21:30.855Z,6.70
2023-03-11T18:24:02.146Z,6.35
2023-03-11T18:26:31.991Z,5.10
2023-03-11T18:29:01.702Z,6.13
2023-03-11T18:31:32.223Z,7.40
2023-03-11T18:34:03.292Z,7.30
2023-03-11T18:36:34.595Z,5.50
2023-03-11T18:39:05.942Z,5.00
2023-03-11T18:41:36.524Z,6.85
2023-03-11T18:44:06.172Z,7.00
2023-03-11T18:46:35.949Z,5.22
2023-03-11T18:49:05.763Z,9.27
2023-03-11T18:51:35.285Z,3.22
2023-03-11T18:54:08.007Z,7.97
2023-03-11T18:56:37.368Z,6.10
2023-03-11T18:59:08.130Z,2.88
2023-03-11T19:01:37.362Z,6.90
2023-03-11T19:04:06.646Z,3.45
2023-03-11T19:06:37.965Z,3.50
2023-03-11T19:09:12.106Z,4.78
2023-03-11T19:11:41.295Z,5.78
2023-03-11T19:14:10.436Z,6.57
2023-03-11T19:16:39.745Z,4.63
2023-03-11T19:19:11.659Z,3.45
2023-03-11T19:21:41.263Z,4.50
2023-03-11T19:24:12.824Z,6.03
2023-03-11T19:26:45.431Z,3.35
2023-03-11T19:29:44.416Z,4.75
2023-03-11T19:32:13.666Z,3.35
2023-03-11T19:34:42.831Z,4.72
2023-03-11T19:37:12.105Z,2.15
2023-03-11T19:39:42.780Z,4.45
2023-03-11T19:42:11.934Z,3.10
2023-03-11T19:44:41.137Z,6.53
2023-03-11T19:47:10.345Z,3.65
2023-03-11T19:49:39.475Z,6.40
2023-03-11T19:52:10.089Z,4.13
2023-03-11T19:54:39.260Z,3.05
2023-03-11T19:57:10.043Z,4.50
2023-03-11T19:59:39.251Z,3.38
2023-03-11T20:02:11.741Z,7.18
2023-03-11T20:04:43.233Z,7.00
2023-03-11T20:07:13.774Z,4.32
2023-03-11T20:09:42.953Z,4.90
2023-03-11T20:12:13.531Z,7.10
2023-03-11T20:14:43.147Z,3.90
2023-03-11T20:17:12.345Z,2.83
2023-03-11T20:19:41.849Z,12.52
2023-03-11T20:22:10.958Z,3.33
2023-03-11T20:24:40.191Z,3.50
2023-03-11T20:27:09.484Z,5.78
2023-03-11T20:29:40.017Z,2.25
2023-03-11T20:32:09.416Z,3.83
2023-03-11T20:35:51.717Z,6.47
2023-03-11T20:38:20.867Z,5.05
2023-03-11T20:40:57.221Z,3.85
2023-03-11T20:43:26.416Z,5.65
2023-03-11T20:45:58.826Z,2.95
2023-03-11T20:48:28.450Z,4.03
2023-03-11T20:51:00.609Z,4.78
2023-03-11T20:53:30.642Z,5.55
2023-03-11T20:56:00.311Z,6.68
2023-03-11T20:58:29.392Z,10.73
2023-03-11T21:01:00.105Z,2.40
2023-03-11T21:03:29.542Z,5.75
2023-03-11T21:05:58.838Z,11.60
2023-03-11T21:08:28.095Z,7.47
2023-03-11T21:11:01.872Z,10.48
2023-03-11T21:13:32.627Z,3.80
2023-03-11T21:16:03.545Z,3.80
2023-03-11T21:18:33.197Z,3.08
2023-03-11T21:21:03.988Z,3.08
2023-03-11T21:23:33.233Z,8.07
2023-03-11T21:26:03.709Z,1.85
2023-03-11T21:28:34.530Z,2.65
2023-03-11T21:31:29.274Z,3.97
2023-03-11T21:34:01.245Z,3.67
2023-03-11T21:36:30.946Z,2.70
2023-03-11T21:39:03.322Z,3.53
2023-03-11T21:41:32.848Z,9.55
2023-03-11T21:44:02.193Z,5.32
2023-03-11T21:46:34.046Z,3.65
2023-03-11T21:49:03.747Z,6.07
2023-03-11T21:51:32.976Z,6.78
2023-03-11T21:54:03.750Z,2.75
2023-03-11T21:56:32.876Z,4.75
2023-03-11T21:59:28.601Z,4.28
2023-03-11T22:02:03.321Z,5.05
2023-03-11T22:04:33.064Z,3.15
2023-03-11T22:07:02.421Z,3.65
2023-03-11T22:09:31.582Z,3.97
2023-03-11T22:12:00.775Z,5.47
2023-03-11T22:14:30.167Z,4.72
2023-03-11T22:17:00.882Z,6.88
2023-03-11T22:19:30.105Z,8.68
2023-03-11T22:21:59.598Z,2.67
2023-03-11T22:24:28.808Z,5.47
2023-03-11T22:26:57.866Z,3.75
2023-03-11T22:29:27.146Z,5.05
2023-03-11T22:31:56.356Z,7.57
2023-03-11T22:34:26.920Z,7.45
2023-03-11T22:36:56.078Z,12.63
2023-03-11T22:39:26.637Z,3.80
2023-03-11T22:41:55.947Z,5.63
2023-03-11T22:44:25.218Z,7.18
2023-03-11T22:46:54.419Z,3.45
2023-03-11T22:49:25.235Z,5.97
2023-03-11T22:51:54.671Z,2.58
2023-03-11T22:54:23.792Z,2.67
2023-03-11T22:56:52.999Z,3.95
2023-03-11T22:59:27.214Z,2.55
2023-03-11T23:01:56.408Z,2.45
2023-03-11T23:04:27.340Z,4.15
2023-03-11T23:06:56.599Z,2.60
2023-03-11T23:09:25.994Z,5.07
2023-03-11T23:12:24.564Z,4.13
2023-03-11T23:14:53.790Z,3.42
2023-03-11T23:17:23.097Z,2.90
2023-03-11T23:19:53.781Z,3.45
2023-03-11T23:22:22.948Z,4.60
2023-03-11T23:24:52.061Z,3.90
2023-03-11T23:27:22.309Z,5.25
2023-03-11T23:29:51.467Z,4.22
2023-03-11T23:32:20.518Z,3.83
2023-03-11T23:34:49.707Z,7.38
2023-03-11T23:37:20.484Z,2.97
2023-03-11T23:39:49.827Z,6.93
2023-03-11T23:42:25.856Z,1.73
2023-03-11T23:44:56.083Z,6.55
2023-03-11T23:47:25.266Z,2.47
2023-03-11T23:49:54.459Z,1.70
2023-03-11T23:52:25.180Z,2.75
2023-03-11T23:54:54.299Z,5.78
2023-03-11T23:57:23.690Z,2.85
2023-03-11T23:59:52.829Z,2.30
